createdAt,value
2023-06-03T00:01:59.046Z,11.25
2023-06-03T00:04:30.677Z,11.25
2023-06-03T00:07:00.332Z,11.18
2023-06-03T00:09:28.408Z,11.06
2023-06-03T00:11:56.342Z,11.03
2023-06-03T00:14:24.357Z,10.97
2023-06-03T00:16:52.493Z,10.95
2023-06-03T00:19:22.023Z,10.93
2023-06-03T00:21:50.658Z,10.94
2023-06-03T00:24:24.147Z,10.97
2023-06-03T00:26:52.263Z,10.96
2023-06-03T00:29:20.827Z,10.96
2023-06-03T00:31:49.161Z,10.99
2023-06-03T00:34:17.205Z,11.02
2023-06-03T00:36:45.209Z,11.03
2023-06-03T00:39:13.164Z,11.06
2023-06-03T00:41:42.429Z,11.05
2023-06-03T00:44:10.341Z,11.06
2023-06-03T00:46:38.454Z,11.04
2023-06-03T00:49:06.772Z,10.98
2023-06-03T00:51:37.361Z,10.89
2023-06-03T00:54:05.325Z,10.84
2023-06-03T00:56:44.750Z,10.84
2023-06-03T00:59:17.989Z,10.82
2023-06-03T01:01:46.394Z,10.80
2023-06-03T01:04:18.088Z,10.81
2023-06-03T01:06:56.741Z,10.76
2023-06-03T01:09:33.821Z,10.73
2023-06-03T01:12:09.558Z,10.71
2023-06-03T01:14:45.639Z,10.72
2023-06-03T01:17:16.459Z,10.69
2023-06-03T01:19:50.499Z,10.63
2023-06-03T01:22:21.709Z,10.60
2023-06-03T01:24:52.075Z,10.59
2023-06-03T01:27:22.005Z,10.56
2023-06-03T01:29:50.094Z,10.55
2023-06-03T01:32:19.558Z,10.49
2023-06-03T01:34:48.553Z,10.47
2023-06-03T01:37:16.505Z,10.39
2023-06-03T01:39:45.089Z,10.33
2023-06-03T01:42:14.761Z,10.28
2023-06-03T01:44:43.007Z,10.22
2023-06-03T01:47:11.467Z,10.23
2023-06-03T01:49:40.308Z,10.24
2023-06-03T01:52:08.385Z,10.25
2023-06-03T01:54:36.248Z,10.22
2023-06-03T01:57:04.886Z,10.20
2023-06-03T01:59:34.360Z,10.19
2023-06-03T02:02:02.657Z,10.15
2023-06-03T02:04:30.666Z,10.12
2023-06-03T02:07:00.577Z,10.14
2023-06-03T02:09:29.484Z,10.16
2023-06-03T02:11:57.912Z,10.20
2023-06-03T02:14:26.963Z,10.23
2023-06-03T02:16:57.801Z,10.22
2023-06-03T02:19:27.976Z,10.12
2023-06-03T02:21:59.039Z,10.10
2023-06-03T02:24:29.968Z,10.09
2023-06-03T02:27:02.574Z,10.05
2023-06-03T02:29:31.661Z,10.05
2023-06-03T02:32:02.249Z,10.00
2023-06-03T02:34:30.296Z,9.92
2023-06-03T02:36:58.197Z,9.91
2023-06-03T02:39:26.368Z,9.84
2023-06-03T02:41:54.425Z,9.80
2023-06-03T02:44:22.351Z,9.79
2023-06-03T02:46:50.312Z,9.77
2023-06-03T02:49:19.671Z,9.74
2023-06-03T02:51:47.639Z,9.75
2023-06-03T02:54:15.718Z,9.74
2023-06-03T02:56:43.649Z,9.72
2023-06-03T02:59:11.648Z,9.72
2023-06-03T03:01:39.945Z,9.74
2023-06-03T03:04:07.924Z,9.72
2023-06-03T03:06:38.537Z,9.67
2023-06-03T03:09:06.698Z,9.65
2023-06-03T03:11:34.645Z,9.63
2023-06-03T03:14:03.217Z,9.60
2023-06-03T03:16:31.409Z,9.57
2023-06-03T03:18:59.401Z,9.56
2023-06-03T03:21:27.269Z,9.62
2023-06-03T03:23:56.805Z,9.60
2023-06-03T03:26:25.911Z,9.62
2023-06-03T03:28:54.995Z,9.66
2023-06-03T03:31:23.135Z,9.66
2023-06-03T03:33:51.841Z,9.69
2023-06-03T03:36:23.615Z,9.72
2023-06-03T03:39:01.920Z,9.76
2023-06-03T03:41:31.697Z,9.77
2023-06-03T03:44:00.591Z,9.77
2023-06-03T03:46:28.800Z,9.77
2023-06-03T03:48:56.831Z,9.81
2023-06-03T03:51:24.680Z,9.80
2023-06-03T03:53:53.194Z,9.82
2023-06-03T03:56:23.628Z,9.84
2023-06-03T03:58:54.513Z,9.85
2023-06-03T04:01:24.821Z,9.87
2023-06-03T04:03:56.395Z,9.89
2023-06-03T04:06:33.832Z,9.92
2023-06-03T04:09:02.757Z,9.92
2023-06-03T04:11:32.568Z,10.01
2023-06-03T04:14:04.375Z,10.10
2023-06-03T04:16:50.372Z,10.19
2023-06-03T04:19:21.442Z,10.26
2023-06-03T04:21:49.887Z,10.40
2023-06-03T04:24:18.550Z,10.49
2023-06-03T04:26:46.562Z,10.58
2023-06-03T04:29:15.829Z,10.62
2023-06-03T04:31:43.734Z,10.68
2023-06-03T04:34:11.589Z,10.75
2023-06-03T04:36:39.420Z,10.89
2023-06-03T04:39:07.389Z,11.02
2023-06-03T04:41:35.298Z,11.06
2023-06-03T04:44:03.759Z,11.07
2023-06-03T04:46:33.271Z,11.07
2023-06-03T04:49:02.640Z,11.07
2023-06-03T04:51:34.912Z,11.10
2023-06-03T04:54:04.431Z,11.23
2023-06-03T04:56:32.624Z,11.39
2023-06-03T04:59:01.861Z,11.47
2023-06-03T05:01:30.454Z,11.49
2023-06-03T05:04:00.057Z,11.45
2023-06-03T05:06:29.722Z,11.58
2023-06-03T05:08:57.651Z,11.89
2023-06-03T05:11:25.979Z,12.23
2023-06-03T05:13:53.834Z,12.49
2023-06-03T05:16:21.722Z,12.73
2023-06-03T05:18:49.716Z,12.93
2023-06-03T05:21:20.653Z,13.05
2023-06-03T05:23:49.125Z,13.31
2023-06-03T05:26:17.036Z,13.72
2023-06-03T05:28:45.038Z,14.02
2023-06-03T05:31:13.138Z,14.31
2023-06-03T05:33:41.638Z,14.48
2023-06-03T05:36:09.985Z,14.70
2023-06-03T05:38:39.259Z,15.01
2023-06-03T05:41:08.160Z,15.20
2023-06-03T05:43:36.260Z,15.43
2023-06-03T05:46:04.206Z,15.52
2023-06-03T05:48:32.618Z,15.49
2023-06-03T05:51:02.036Z,15.50
2023-06-03T05:53:29.891Z,15.54
2023-06-03T05:55:59.221Z,15.54
2023-06-03T05:58:27.094Z,15.59
2023-06-03T06:00:54.945Z,15.79
2023-06-03T06:03:23.080Z,16.00
2023-06-03T06:05:51.137Z,16.11
2023-06-03T06:08:18.991Z,16.32
2023-06-03T06:10:47.183Z,16.51
2023-06-03T06:13:16.829Z,16.55
2023-06-03T06:15:59.613Z,16.58
2023-06-03T06:18:27.796Z,16.80
2023-06-03T06:20:55.792Z,17.02
2023-06-03T06:23:23.774Z,17.07
2023-06-03T06:25:52.899Z,17.15
2023-06-03T06:28:26.047Z,17.68
2023-06-03T06:30:55.462Z,18.13
2023-06-03T06:33:23.864Z,18.61
2023-06-03T06:35:51.786Z,18.93
2023-06-03T06:38:19.663Z,19.17
2023-06-03T06:40:47.617Z,19.43
2023-06-03T06:43:19.943Z,19.70
2023-06-03T06:45:49.740Z,19.73
2023-06-03T06:48:17.796Z,19.79
2023-06-03T06:50:50.908Z,19.95
2023-06-03T06:53:20.741Z,20.14
2023-06-03T06:55:50.841Z,20.06
2023-06-03T06:58:19.826Z,20.21
2023-06-03T07:00:50.233Z,20.56
2023-06-03T07:03:19.499Z,20.57
2023-06-03T07:05:53.603Z,20.83
2023-06-03T07:08:23.260Z,21.03
2023-06-03T07:10:51.421Z,20.97
2023-06-03T07:13:19.370Z,20.96
2023-06-03T07:15:47.372Z,21.20
2023-06-03T07:18:16.827Z,20.88
2023-06-03T07:20:46.495Z,20.22
2023-06-03T07:23:16.259Z,19.73
2023-06-03T07:25:45.829Z,19.73
2023-06-03T07:28:15.135Z,20.03
2023-06-03T07:30:44.564Z,20.31
2023-06-03T07:33:24.174Z,20.62
2023-06-03T07:35:55.658Z,20.89
2023-06-03T07:38:57.901Z,20.71
2023-06-03T07:41:41.033Z,19.97
2023-06-03T07:44:11.399Z,19.14
2023-06-03T07:46:55.515Z,18.14
2023-06-03T07:49:24.342Z,17.38
2023-06-03T07:51:54.973Z,16.92
2023-06-03T07:54:24.080Z,16.69
2023-06-03T07:56:52.148Z,16.58
2023-06-03T07:59:22.022Z,16.41
2023-06-03T08:01:52.397Z,16.01
2023-06-03T08:04:33.240Z,15.72
2023-06-03T08:07:03.843Z,15.53
2023-06-03T08:09:36.176Z,15.38
2023-06-03T08:12:07.006Z,15.42
2023-06-03T08:14:36.522Z,15.48
2023-06-03T08:17:09.937Z,15.45
2023-06-03T08:19:38.655Z,15.51
2023-06-03T08:22:30.645Z,15.60
2023-06-03T08:24:58.514Z,15.54
2023-06-03T08:27:26.575Z,15.44
2023-06-03T08:29:54.584Z,15.39
2023-06-03T08:32:23.753Z,15.39
2023-06-03T08:34:51.742Z,15.38
2023-06-03T08:37:22.238Z,15.44
2023-06-03T08:39:50.237Z,15.41
2023-06-03T08:42:24.282Z,15.45
2023-06-03T08:45:02.986Z,15.61
2023-06-03T08:47:37.320Z,15.69
2023-06-03T08:50:07.949Z,15.73
2023-06-03T08:52:38.103Z,15.78
2023-06-03T08:55:08.123Z,15.82
2023-06-03T08:57:37.293Z,15.87
2023-06-03T09:00:08.467Z,15.94
2023-06-03T09:02:38.308Z,16.01
2023-06-03T09:05:07.631Z,16.04
2023-06-03T09:07:37.968Z,16.09
2023-06-03T09:10:07.142Z,16.16
2023-06-03T09:12:35.991Z,16.21
2023-06-03T09:15:05.319Z,16.24
2023-06-03T09:17:34.220Z,16.27
2023-06-03T09:20:03.427Z,16.24
2023-06-03T09:22:32.175Z,16.23
2023-06-03T09:25:01.500Z,16.22
2023-06-03T09:27:29.438Z,16.29
2023-06-03T09:29:57.997Z,16.32
2023-06-03T09:32:25.973Z,16.38
2023-06-03T09:34:54.879Z,16.43
2023-06-03T09:37:22.777Z,16.52
2023-06-03T09:39:50.797Z,16.64
2023-06-03T09:42:20.024Z,16.73
2023-06-03T09:44:50.628Z,16.77
2023-06-03T09:47:18.793Z,16.81
2023-06-03T09:50:05.527Z,16.77
2023-06-03T09:52:34.239Z,16.67
2023-06-03T09:55:04.070Z,16.69
2023-06-03T09:57:33.558Z,16.71
2023-06-03T10:00:11.947Z,16.88
2023-06-03T10:02:41.987Z,17.15
2023-06-03T10:05:27.873Z,17.36
2023-06-03T10:07:56.183Z,17.69
2023-06-03T10:10:24.757Z,18.23
2023-06-03T10:12:54.232Z,19.02
2023-06-03T10:15:39.100Z,19.87
2023-06-03T10:18:08.315Z,20.58
2023-06-03T10:20:37.979Z,21.24
2023-06-03T10:23:08.002Z,21.93
2023-06-03T10:25:42.447Z,22.90
2023-06-03T10:28:12.049Z,23.65
2023-06-03T10:30:41.139Z,24.33
2023-06-03T10:33:10.627Z,25.16
2023-06-03T10:35:40.225Z,26.06
2023-06-03T10:38:09.659Z,26.71
2023-06-03T10:40:37.567Z,27.24
2023-06-03T10:43:05.982Z,27.33
2023-06-03T10:45:35.583Z,27.60
2023-06-03T10:48:09.806Z,28.00
2023-06-03T10:50:54.884Z,28.74
2023-06-03T10:53:38.719Z,29.66
2023-06-03T10:56:10.210Z,30.15
2023-06-03T10:58:42.558Z,30.33
2023-06-03T11:01:12.041Z,30.68
2023-06-03T11:04:13.589Z,31.02
2023-06-03T11:06:41.740Z,31.35
2023-06-03T11:09:14.099Z,31.16
2023-06-03T11:12:08.202Z,30.96
2023-06-03T11:14:58.197Z,30.35
2023-06-03T11:17:28.638Z,29.97
2023-06-03T11:20:00.800Z,30.01
2023-06-03T11:22:47.536Z,30.15
2023-06-03T11:25:31.266Z,29.91
2023-06-03T11:28:37.668Z,29.72
2023-06-03T11:31:08.692Z,29.69
2023-06-03T11:33:38.488Z,29.48
2023-06-03T11:36:58.775Z,29.18
2023-06-03T11:39:27.182Z,28.18
2023-06-03T11:42:10.752Z,26.75
2023-06-03T11:44:41.365Z,26.21
2023-06-03T11:47:09.962Z,25.99
2023-06-03T11:49:41.048Z,25.82
2023-06-03T11:52:10.368Z,25.39
2023-06-03T11:54:39.562Z,24.80
2023-06-03T11:57:09.380Z,24.16
2023-06-03T11:59:42.159Z,23.34
2023-06-03T12:02:10.602Z,22.45
2023-06-03T12:04:40.573Z,21.71
2023-06-03T12:07:12.673Z,21.13
2023-06-03T12:09:40.984Z,20.80
2023-06-03T12:12:11.101Z,20.52
2023-06-03T12:14:40.232Z,20.21
2023-06-03T12:17:14.713Z,19.71
2023-06-03T12:19:46.192Z,19.30
2023-06-03T12:22:14.857Z,19.04
2023-06-03T12:24:44.381Z,18.93
2023-06-03T12:27:13.843Z,18.94
2023-06-03T12:29:46.619Z,18.99
2023-06-03T12:32:14.785Z,19.03
2023-06-03T12:34:45.453Z,19.04
2023-06-03T12:37:14.766Z,18.98
2023-06-03T12:39:45.699Z,18.81
2023-06-03T12:42:14.240Z,18.71
2023-06-03T12:44:46.673Z,18.64
2023-06-03T12:47:16.964Z,18.39
2023-06-03T12:50:05.609Z,18.22
2023-06-03T12:52:35.931Z,18.12
2023-06-03T12:55:05.570Z,18.08
2023-06-03T12:57:36.405Z,18.13
2023-06-03T13:00:08.625Z,18.09
2023-06-03T13:02:37.702Z,18.20
2023-06-03T13:05:08.547Z,18.31
2023-06-03T13:07:37.760Z,18.40
2023-06-03T13:10:07.517Z,18.47
2023-06-03T13:12:36.735Z,18.59
2023-06-03T13:15:11.406Z,18.68
2023-06-03T13:17:39.738Z,18.72
2023-06-03T13:20:10.640Z,18.77
2023-06-03T13:22:41.195Z,18.78
2023-06-03T13:25:09.662Z,18.80
2023-06-03T13:27:37.831Z,18.83
2023-06-03T13:30:06.901Z,18.85
2023-06-03T13:32:35.498Z,18.88
2023-06-03T13:35:04.179Z,18.91
2023-06-03T13:37:33.603Z,18.90
2023-06-03T13:40:01.465Z,18.93
2023-06-03T13:42:29.450Z,18.94
2023-06-03T13:44:57.311Z,18.97
2023-06-03T13:47:25.325Z,18.98
2023-06-03T13:49:54.485Z,18.95
2023-06-03T13:52:22.586Z,18.93
2023-06-03T13:54:51.828Z,18.80
2023-06-03T13:57:19.745Z,18.76
2023-06-03T13:59:47.834Z,18.75
2023-06-03T14:02:16.554Z,18.74
2023-06-03T14:04:45.168Z,18.73
2023-06-03T14:07:13.206Z,18.75
2023-06-03T14:09:41.273Z,18.75
2023-06-03T14:12:12.867Z,18.74
2023-06-03T14:14:41.231Z,18.68
2023-06-03T14:17:09.324Z,18.58
2023-06-03T14:19:37.305Z,18.55
2023-06-03T14:22:05.851Z,18.52
2023-06-03T14:24:34.264Z,18.46
2023-06-03T14:27:02.519Z,18.45
2023-06-03T14:29:31.742Z,18.46
2023-06-03T14:31:59.913Z,18.47
2023-06-03T14:34:27.959Z,18.47
2023-06-03T14:36:55.784Z,18.48
2023-06-03T14:39:23.742Z,18.50
2023-06-03T14:41:52.471Z,18.50
2023-06-03T14:44:22.454Z,18.47
2023-06-03T14:46:51.783Z,18.48
2023-06-03T14:49:21.038Z,18.49
2023-06-03T14:51:48.943Z,18.48
2023-06-03T14:54:16.933Z,18.47
2023-06-03T14:56:44.856Z,18.46
2023-06-03T14:59:12.832Z,18.46
2023-06-03T15:01:41.780Z,18.43
2023-06-03T15:04:11.088Z,18.44
2023-06-03T15:06:39.115Z,18.44
2023-06-03T15:09:07.331Z,18.45
2023-06-03T15:11:35.394Z,18.48
2023-06-03T15:14:03.346Z,18.47
2023-06-03T15:16:31.250Z,18.46
2023-06-03T15:18:59.175Z,18.43
2023-06-03T15:21:28.498Z,18.39
2023-06-03T15:23:56.938Z,18.39
2023-06-03T15:26:24.983Z,18.38
2023-06-03T15:28:52.876Z,18.35
2023-06-03T15:31:21.194Z,18.28
2023-06-03T15:33:49.196Z,18.21
2023-06-03T15:36:17.587Z,18.12
2023-06-03T15:38:47.543Z,18.08
2023-06-03T15:41:15.848Z,18.02
2023-06-03T15:43:43.832Z,18.00
2023-06-03T15:46:11.766Z,17.97
2023-06-03T15:48:41.348Z,17.91
2023-06-03T15:51:09.576Z,17.95
2023-06-03T15:53:37.549Z,17.99
2023-06-03T15:56:07.166Z,18.02
2023-06-03T15:58:35.616Z,17.99
2023-06-03T16:01:03.536Z,17.96
2023-06-03T16:03:31.525Z,17.95
2023-06-03T16:05:59.445Z,17.93
2023-06-03T16:08:27.399Z,17.92
2023-06-03T16:10:56.192Z,17.91
2023-06-03T16:13:27.301Z,17.95
2023-06-03T16:15:57.760Z,17.97
2023-06-03T16:18:27.663Z,18.01
2023-06-03T16:20:56.431Z,18.02
2023-06-03T16:23:28.946Z,18.03
2023-06-03T16:25:57.235Z,18.03
2023-06-03T16:28:26.617Z,18.02
2023-06-03T16:30:55.165Z,18.00
2023-06-03T16:33:23.163Z,17.94
2023-06-03T16:35:51.069Z,17.91
2023-06-03T16:38:19.109Z,17.88
2023-06-03T16:40:48.727Z,17.86
2023-06-03T16:43:17.150Z,17.85
2023-06-03T16:45:46.991Z,17.90
2023-06-03T16:48:14.993Z,17.90
2023-06-03T16:50:42.975Z,17.86
2023-06-03T16:53:10.956Z,17.83
2023-06-03T16:55:39.124Z,17.82
2023-06-03T16:58:07.054Z,17.82
2023-06-03T17:00:34.981Z,17.76
2023-06-03T17:03:04.315Z,17.72
2023-06-03T17:05:32.556Z,17.68
2023-06-03T17:08:01.252Z,17.65
2023-06-03T17:10:30.144Z,17.61
2023-06-03T17:12:58.074Z,17.58
2023-06-03T17:15:26.143Z,17.56
2023-06-03T17:17:54.411Z,17.51
2023-06-03T17:20:24.003Z,17.49
2023-06-03T17:22:51.878Z,17.44
2023-06-03T17:25:20.917Z,17.36
2023-06-03T17:27:48.841Z,17.32
2023-06-03T17:30:16.717Z,17.28
2023-06-03T17:32:45.909Z,17.27
2023-06-03T17:35:14.447Z,17.28
2023-06-03T17:37:44.000Z,17.27
2023-06-03T17:40:13.069Z,17.28
2023-06-03T17:42:42.130Z,17.29
2023-06-03T17:45:11.160Z,17.27
2023-06-03T17:47:39.149Z,17.25
2023-06-03T17:50:07.975Z,17.21
2023-06-03T17:52:36.155Z,17.18
2023-06-03T17:55:05.718Z,17.19
2023-06-03T17:57:34.042Z,17.17
2023-06-03T18:00:01.987Z,17.19
2023-06-03T18:02:35.152Z,17.16
2023-06-03T18:05:03.396Z,17.13
2023-06-03T18:07:31.426Z,17.10
2023-06-03T18:09:59.304Z,17.07
2023-06-03T18:12:28.556Z,17.05
2023-06-03T18:14:56.439Z,17.01
2023-06-03T18:17:25.058Z,16.98
2023-06-03T18:19:54.024Z,16.97
2023-06-03T18:22:22.217Z,16.97
2023-06-03T18:24:50.147Z,16.96
2023-06-03T18:27:18.939Z,16.94
2023-06-03T18:29:49.718Z,16.93
2023-06-03T18:32:17.855Z,16.87
2023-06-03T18:34:46.328Z,16.85
2023-06-03T18:37:14.350Z,16.81
2023-06-03T18:39:42.436Z,16.78
2023-06-03T18:42:10.972Z,16.76
2023-06-03T18:44:38.840Z,16.72
2023-06-03T18:47:08.865Z,16.69
2023-06-03T18:49:36.798Z,16.62
2023-06-03T18:52:05.243Z,16.58
2023-06-03T18:54:33.220Z,16.54
2023-06-03T18:57:01.587Z,16.51
2023-06-03T18:59:29.652Z,16.49
2023-06-03T19:01:57.696Z,16.47
2023-06-03T19:04:27.489Z,16.42
2023-06-03T19:06:55.691Z,16.38
2023-06-03T19:09:23.549Z,16.36
2023-06-03T19:11:51.430Z,16.32
2023-06-03T19:14:19.513Z,16.28
2023-06-03T19:16:47.539Z,16.24
2023-06-03T19:19:15.716Z,16.23
2023-06-03T19:21:44.982Z,16.21
2023-06-03T19:24:13.025Z,16.18
2023-06-03T19:26:40.976Z,16.14
2023-06-03T19:29:08.860Z,16.09
2023-06-03T19:31:36.882Z,16.01
2023-06-03T19:34:05.708Z,15.98
2023-06-03T19:36:33.653Z,15.92
2023-06-03T19:39:02.941Z,15.89
2023-06-03T19:41:30.774Z,15.88
2023-06-03T19:43:58.974Z,15.86
2023-06-03T19:46:29.209Z,15.82
2023-06-03T19:48:57.256Z,15.79
2023-06-03T19:51:25.191Z,15.79
2023-06-03T19:53:53.228Z,15.75
2023-06-03T19:56:24.601Z,15.73
2023-06-03T19:58:52.656Z,15.72
2023-06-03T20:01:23.377Z,15.66
2023-06-03T20:03:51.851Z,15.61
2023-06-03T20:06:20.194Z,15.59
2023-06-03T20:08:50.779Z,15.61
2023-06-03T20:11:19.515Z,15.60
2023-06-03T20:13:49.096Z,15.56
2023-06-03T20:16:16.983Z,15.50
2023-06-03T20:18:45.835Z,15.43
2023-06-03T20:21:13.914Z,15.38
2023-06-03T20:23:41.864Z,15.34
2023-06-03T20:26:10.094Z,15.35
2023-06-03T20:28:38.473Z,15.31
2023-06-03T20:31:09.477Z,15.26
2023-06-03T20:33:37.474Z,15.19
2023-06-03T20:36:06.412Z,15.16
2023-06-03T20:38:34.665Z,15.11
2023-06-03T20:41:03.931Z,15.07
2023-06-03T20:43:32.081Z,15.04
2023-06-03T20:46:00.511Z,14.97
2023-06-03T20:48:29.860Z,14.94
2023-06-03T20:50:57.843Z,14.90
2023-06-03T20:53:28.309Z,14.84
2023-06-03T20:55:56.606Z,14.87
2023-06-03T20:58:24.850Z,14.84
2023-06-03T21:00:52.748Z,14.80
2023-06-03T21:03:20.865Z,14.84
2023-06-03T21:05:50.597Z,14.86
2023-06-03T21:08:18.564Z,14.87
2023-06-03T21:10:46.648Z,14.86
2023-06-03T21:13:14.610Z,14.87
2023-06-03T21:15:42.579Z,14.86
2023-06-03T21:18:10.990Z,14.91
2023-06-03T21:20:39.037Z,14.96
2023-06-03T21:23:08.396Z,15.00
2023-06-03T21:25:36.614Z,15.02
2023-06-03T21:28:04.533Z,15.04
2023-06-03T21:30:32.531Z,15.08
2023-06-03T21:33:00.536Z,15.08
2023-06-03T21:35:28.480Z,15.09
2023-06-03T21:37:56.384Z,15.10
2023-06-03T21:40:25.740Z,15.11
2023-06-03T21:42:53.572Z,15.10
2023-06-03T21:45:21.622Z,15.11
2023-06-03T21:47:49.519Z,15.08
2023-06-03T21:50:17.614Z,15.07
2023-06-03T21:52:48.142Z,15.09
2023-06-03T21:55:16.978Z,15.08
2023-06-03T21:57:46.236Z,15.05
2023-06-03T22:00:15.339Z,15.04
2023-06-03T22:02:44.112Z,15.00
2023-06-03T22:05:12.146Z,14.98
2023-06-03T22:07:40.217Z,14.96
2023-06-03T22:10:11.690Z,14.94
2023-06-03T22:12:39.600Z,14.92
2023-06-03T22:15:10.248Z,14.85
2023-06-03T22:17:38.202Z,14.78
2023-06-03T22:20:07.370Z,14.70
2023-06-03T22:22:35.281Z,14.65
2023-06-03T22:25:03.805Z,14.60
2023-06-03T22:27:31.858Z,14.55
2023-06-03T22:29:59.775Z,14.52
2023-06-03T22:32:29.186Z,14.49
2023-06-03T22:34:57.165Z,14.46
2023-06-03T22:37:25.138Z,14.48
2023-06-03T22:39:53.708Z,14.49
2023-06-03T22:42:21.544Z,14.49
2023-06-03T22:44:49.532Z,14.54
2023-06-03T22:47:17.447Z,14.56
2023-06-03T22:49:46.732Z,14.58
2023-06-03T22:52:14.629Z,14.61
2023-06-03T22:54:42.609Z,14.65
2023-06-03T22:57:10.615Z,14.69
2023-06-03T22:59:38.608Z,14.68
2023-06-03T23:02:07.399Z,14.68
2023-06-03T23:04:35.482Z,14.70
2023-06-03T23:07:04.944Z,14.69
2023-06-03T23:09:32.849Z,14.72
2023-06-03T23:12:00.774Z,14.75
2023-06-03T23:14:28.641Z,14.73
2023-06-03T23:16:56.789Z,14.69
2023-06-03T23:19:24.705Z,14.66
2023-06-03T23:21:52.659Z,14.60
2023-06-03T23:24:21.968Z,14.59
2023-06-03T23:26:49.859Z,14.53
2023-06-03T23:29:17.831Z,14.47
2023-06-03T23:31:47.140Z,14.44
2023-06-03T23:34:15.069Z,14.43
2023-06-03T23:36:43.029Z,14.43
2023-06-03T23:39:10.970Z,14.48
2023-06-03T23:41:40.740Z,14.45
2023-06-03T23:44:08.652Z,14.42
2023-06-03T23:46:36.531Z,14.40
2023-06-03T23:49:04.531Z,14.35
2023-06-03T23:51:32.497Z,14.33
2023-06-03T23:54:01.710Z,14.27
2023-06-03T23:56:30.988Z,14.23
2023-06-03T23:59:02.023Z,14.17
